createdAt,value
2019-04-27T00:00:40.179Z,68.40
2019-04-27T00:05:53.557Z,68.80
2019-04-27T00:11:08.696Z,69.40
2019-04-27T00:16:50.887Z,70.00
2019-04-27T00:22:03.171Z,70.60
2019-04-27T00:27:08.714Z,70.90
2019-04-27T00:32:14.430Z,71.30
2019-04-27T00:37:42.702Z,71.70
2019-04-27T00:42:48.868Z,72.10
2019-04-27T00:47:59.308Z,72.60
2019-04-27T00:53:03.250Z,72.50
2019-04-27T00:58:26.541Z,72.80
2019-04-27T01:03:43.132Z,72.80
2019-04-27T01:08:48.543Z,72.80
2019-04-27T01:13:54.028Z,73.00
2019-04-27T01:18:59.586Z,72.90
2019-04-27T01:24:05.086Z,72.90
2019-04-27T01:29:13.823Z,72.90
2019-04-27T01:34:19.634Z,73.10
2019-04-27T01:39:25.300Z,73.30
2019-04-27T01:44:30.732Z,73.30
2019-04-27T01:49:36.272Z,73.50
2019-04-27T01:54:42.069Z,73.60
2019-04-27T01:59:48.931Z,73.70
2019-04-27T02:05:16.175Z,73.80
2019-04-27T02:10:21.704Z,74.10
2019-04-27T02:15:27.203Z,74.20
2019-04-27T02:20:32.646Z,74.60
2019-04-27T02:25:39.636Z,74.70
2019-04-27T02:31:02.504Z,74.70
2019-04-27T02:36:14.009Z,74.80
2019-04-27T02:41:15.164Z,74.80
2019-04-27T02:46:20.723Z,74.90
2019-04-27T02:51:45.051Z,74.40
2019-04-27T02:56:52.798Z,74.30
2019-04-27T03:02:12.194Z,74.40
2019-04-27T03:07:19.867Z,74.30
2019-04-27T03:12:29.574Z,74.30
2019-04-27T03:17:51.720Z,74.40
2019-04-27T03:23:00.232Z,74.70
2019-04-27T03:28:10.654Z,75.50
2019-04-27T03:33:16.343Z,74.60
2019-04-27T03:38:21.797Z,74.90
2019-04-27T03:43:30.026Z,75.20
2019-04-27T03:48:34.589Z,76.00
2019-04-27T03:53:57.442Z,75.30
2019-04-27T03:59:06.074Z,75.30
2019-04-27T04:04:11.604Z,75.50
2019-04-27T04:09:17.106Z,75.40
2019-04-27T04:14:23.289Z,75.50
2019-04-27T04:19:31.535Z,75.50
2019-04-27T04:24:35.961Z,76.30
2019-04-27T04:29:41.373Z,75.50
2019-04-27T04:34:46.844Z,75.30
2019-04-27T04:39:53.561Z,75.50
2019-04-27T04:45:20.293Z,75.90
2019-04-27T04:50:25.647Z,75.60
2019-04-27T04:55:31.113Z,75.80
2019-04-27T05:00:36.560Z,75.60
2019-04-27T05:05:41.963Z,75.30
2019-04-27T05:10:49.483Z,74.80
2019-04-27T05:15:54.550Z,74.30
2019-04-27T05:21:15.618Z,73.50
2019-04-27T05:26:21.073Z,73.00
2019-04-27T05:31:26.470Z,72.20
2019-04-27T05:36:31.963Z,71.70
2019-04-27T05:41:39.305Z,71.10
2019-04-27T05:47:05.408Z,70.60
2019-04-27T05:52:30.529Z,70.70
2019-04-27T05:57:36.071Z,71.20
2019-04-27T06:02:41.592Z,71.60
2019-04-27T06:07:48.715Z,72.20
2019-04-27T06:12:54.297Z,72.90
2019-04-27T06:17:59.978Z,73.50
2019-04-27T06:23:05.409Z,74.20
2019-04-27T06:28:10.870Z,74.40
2019-04-27T06:33:27.996Z,74.50
2019-04-27T06:38:23.610Z,74.60
2019-04-27T06:43:29.476Z,74.40
2019-04-27T06:48:35.017Z,74.70
2019-04-27T06:53:40.793Z,74.70
2019-04-27T06:58:46.338Z,75.00
2019-04-27T07:03:51.752Z,74.80
2019-04-27T07:08:57.238Z,74.20
2019-04-27T07:14:02.678Z,73.20
2019-04-27T07:19:09.434Z,72.60
2019-04-27T07:24:15.063Z,73.10
2019-04-27T07:29:23.116Z,73.50
2019-04-27T07:34:28.618Z,73.70
2019-04-27T07:39:34.904Z,74.20
2019-04-27T07:44:49.806Z,74.80
2019-04-27T07:49:55.513Z,75.00
2019-04-27T07:55:00.975Z,74.90
2019-04-27T08:00:07.018Z,74.90
2019-04-27T08:05:12.468Z,74.90
2019-04-27T08:10:19.322Z,74.90
2019-04-27T08:15:24.967Z,74.70
2019-04-27T08:20:30.398Z,75.00
2019-04-27T08:25:36.112Z,75.10
2019-04-27T08:31:12.414Z,75.30
2019-04-27T08:36:19.050Z,75.50
2019-04-27T08:41:24.606Z,75.40
2019-04-27T08:46:30.036Z,75.40
2019-04-27T08:51:35.568Z,75.50
2019-04-27T08:56:41.072Z,75.50
2019-04-27T09:01:46.566Z,75.40
2019-04-27T09:06:56.261Z,75.20
2019-04-27T09:12:19.701Z,75.20
2019-04-27T09:17:37.536Z,74.70
2019-04-27T09:22:42.942Z,74.20
2019-04-27T09:27:49.262Z,74.00
2019-04-27T09:32:55.113Z,73.50
2019-04-27T09:38:00.645Z,73.40
2019-04-27T09:43:07.496Z,74.30
2019-04-27T09:48:13.170Z,72.80
2019-04-27T09:53:18.819Z,72.50
2019-04-27T09:58:25.764Z,72.60
2019-04-27T10:03:31.451Z,72.70
2019-04-27T10:08:36.874Z,72.40
2019-04-27T10:13:42.342Z,71.30
2019-04-27T10:18:47.831Z,70.30
2019-04-27T10:23:53.386Z,67.90
2019-04-27T10:28:59.044Z,66.20
2019-04-27T10:34:05.996Z,64.40
2019-04-27T10:39:13.513Z,63.80
2019-04-27T10:44:19.303Z,62.30
2019-04-27T10:49:25.026Z,60.90
2019-04-27T10:54:30.480Z,60.40
2019-04-27T10:59:36.212Z,60.00
2019-04-27T11:04:58.796Z,59.30
2019-04-27T11:10:07.582Z,58.30
2019-04-27T11:15:13.331Z,57.50
2019-04-27T11:20:18.750Z,58.00
2019-04-27T11:25:26.437Z,58.20
2019-04-27T11:30:32.157Z,59.00
2019-04-27T11:35:53.183Z,60.00
2019-04-27T11:40:58.801Z,60.60
2019-04-27T11:46:06.188Z,61.50
2019-04-27T11:51:12.113Z,62.00
2019-04-27T11:56:17.813Z,61.10
2019-04-27T12:01:23.528Z,60.00
2019-04-27T12:06:29.141Z,59.40
2019-04-27T12:11:36.287Z,57.50
2019-04-27T12:16:41.775Z,56.10
2019-04-27T12:21:47.385Z,55.40
2019-04-27T12:27:10.236Z,55.40
2019-04-27T12:32:16.093Z,55.60
2019-04-27T12:37:21.584Z,54.10
2019-04-27T12:42:27.175Z,54.60
2019-04-27T12:47:32.722Z,53.50
2019-04-27T12:52:38.513Z,52.50
2019-04-27T12:58:06.332Z,50.90
2019-04-27T13:03:11.908Z,50.00
2019-04-27T13:08:17.320Z,50.20
2019-04-27T13:13:22.963Z,48.90
2019-04-27T13:18:28.395Z,49.20
2019-04-27T13:23:33.809Z,48.50
2019-04-27T13:28:39.304Z,48.30
2019-04-27T13:33:46.470Z,48.00
2019-04-27T13:38:51.750Z,48.00
2019-04-27T13:43:57.598Z,46.80
2019-04-27T13:49:10.852Z,46.60
2019-04-27T13:54:23.698Z,47.10
2019-04-27T13:59:23.554Z,47.20
2019-04-27T14:04:29.253Z,46.60
2019-04-27T14:09:34.735Z,46.50
2019-04-27T14:14:40.175Z,46.50
2019-04-27T14:19:45.797Z,48.90
2019-04-27T14:24:51.593Z,50.50
2019-04-27T14:29:59.000Z,51.30
2019-04-27T14:35:04.497Z,52.00
2019-04-27T14:40:10.132Z,52.80
2019-04-27T14:45:15.570Z,52.90
2019-04-27T14:50:21.341Z,52.80
2019-04-27T14:55:28.238Z,53.00
2019-04-27T15:00:33.989Z,53.10
2019-04-27T15:05:39.488Z,53.30
2019-04-27T15:10:46.440Z,53.30
2019-04-27T15:15:52.092Z,53.40
2019-04-27T15:20:58.541Z,53.10
2019-04-27T15:26:04.825Z,54.80
2019-04-27T15:31:29.552Z,57.30
2019-04-27T15:36:56.898Z,58.70
2019-04-27T15:42:07.837Z,59.10
2019-04-27T15:47:11.962Z,58.50
2019-04-27T15:52:17.991Z,57.00
2019-04-27T15:57:23.480Z,55.10
2019-04-27T16:02:29.025Z,55.20
2019-04-27T16:07:34.549Z,53.90
2019-04-27T16:12:54.565Z,53.80
2019-04-27T16:17:53.382Z,52.90
2019-04-27T16:22:56.818Z,52.60
2019-04-27T16:28:04.613Z,52.50
2019-04-27T16:33:09.475Z,53.00
2019-04-27T16:38:33.602Z,53.20
2019-04-27T16:43:34.399Z,54.10
2019-04-27T16:48:40.240Z,54.90
2019-04-27T16:53:45.675Z,55.50
2019-04-27T16:58:56.791Z,56.00
2019-04-27T17:03:59.276Z,56.10
2019-04-27T17:09:09.410Z,56.50
2019-04-27T17:14:26.742Z,56.80
2019-04-27T17:19:35.803Z,57.20
2019-04-27T17:24:43.996Z,57.50
2019-04-27T17:29:50.192Z,57.80
2019-04-27T17:34:55.635Z,58.60
2019-04-27T17:40:01.481Z,58.70
2019-04-27T17:45:08.898Z,59.00
2019-04-27T17:50:18.408Z,59.00
2019-04-27T17:55:24.330Z,59.40
2019-04-27T18:00:32.964Z,59.50
2019-04-27T18:05:36.164Z,59.70
2019-04-27T18:10:41.606Z,59.80
2019-04-27T18:15:50.668Z,60.90
2019-04-27T18:20:54.404Z,60.80
2019-04-27T18:26:08.039Z,61.30
2019-04-27T18:31:16.234Z,63.40
2019-04-27T18:36:22.824Z,65.50
2019-04-27T18:41:28.754Z,65.90
2019-04-27T18:46:34.264Z,66.20
2019-04-27T18:51:48.429Z,67.00
2019-04-27T18:57:02.007Z,67.70
2019-04-27T19:02:01.049Z,68.50
2019-04-27T19:07:06.458Z,68.90
2019-04-27T19:12:11.968Z,69.20
2019-04-27T19:17:18.073Z,69.50
2019-04-27T19:22:24.636Z,70.00
2019-04-27T19:27:58.283Z,70.40
2019-04-27T19:33:03.984Z,70.80
2019-04-27T19:38:09.506Z,70.90
2019-04-27T19:43:14.917Z,71.30
2019-04-27T19:48:20.375Z,72.00
2019-04-27T19:53:25.831Z,72.30
2019-04-27T19:58:35.406Z,72.20
2019-04-27T20:03:50.432Z,72.40
2019-04-27T20:08:58.277Z,72.50
2019-04-27T20:14:03.801Z,72.50
2019-04-27T20:19:09.388Z,72.60
2019-04-27T20:24:14.832Z,72.70
2019-04-27T20:29:21.777Z,72.80
2019-04-27T20:34:27.399Z,72.70
2019-04-27T20:39:32.834Z,72.70
2019-04-27T20:44:38.289Z,72.90
2019-04-27T20:49:43.753Z,72.90
2019-04-27T20:54:51.366Z,73.10
2019-04-27T20:59:56.471Z,72.80
2019-04-27T21:05:21.141Z,72.80
2019-04-27T21:10:26.705Z,72.60
2019-04-27T21:15:32.285Z,72.60
2019-04-27T21:20:37.780Z,72.50
2019-04-27T21:25:43.278Z,72.60
2019-04-27T21:30:48.721Z,72.40
2019-04-27T21:35:54.149Z,72.30
2019-04-27T21:40:59.561Z,72.20
2019-04-27T21:46:05.075Z,71.90
2019-04-27T21:51:11.830Z,71.70
2019-04-27T21:56:17.553Z,71.50
2019-04-27T22:01:26.701Z,71.30
2019-04-27T22:06:32.260Z,71.20
2019-04-27T22:11:37.905Z,70.90
2019-04-27T22:16:43.579Z,70.80
2019-04-27T22:21:49.409Z,70.80
2019-04-27T22:26:54.934Z,70.60
2019-04-27T22:32:01.677Z,70.30
2019-04-27T22:37:07.360Z,70.20
2019-04-27T22:42:31.275Z,70.10
2019-04-27T22:47:36.928Z,70.10
2019-04-27T22:52:42.460Z,70.00
2019-04-27T22:58:16.059Z,70.00
2019-04-27T23:03:26.449Z,70.00
2019-04-27T23:08:32.093Z,69.90
2019-04-27T23:13:37.575Z,69.80
2019-04-27T23:18:43.121Z,69.80
2019-04-27T23:23:48.598Z,69.60
2019-04-27T23:28:54.089Z,69.60
2019-04-27T23:33:59.657Z,69.30
2019-04-27T23:39:06.407Z,69.20
2019-04-27T23:44:12.073Z,69.00
2019-04-27T23:49:17.527Z,68.90
2019-04-27T23:54:22.986Z,68.90
2019-04-27T23:59:28.498Z,68.90
